createdAt,value
2018-12-15T00:02:22.456Z,15.10
2018-12-15T00:05:26.245Z,16.00
2018-12-15T00:08:29.765Z,15.47
2018-12-15T00:11:33.440Z,14.90
2018-12-15T00:14:36.933Z,14.43
2018-12-15T00:17:40.409Z,15.43
2018-12-15T00:20:43.980Z,15.53
2018-12-15T00:26:44.590Z,15.70
2018-12-15T00:29:48.155Z,16.23
2018-12-15T00:32:51.595Z,17.07
2018-12-15T00:35:55.140Z,15.97
2018-12-15T00:38:58.635Z,16.67
2018-12-15T00:42:02.241Z,16.13
2018-12-15T00:45:06.361Z,16.12
2018-12-15T00:48:10.295Z,16.23
2018-12-15T00:51:13.885Z,15.98
2018-12-15T00:54:18.016Z,16.20
2018-12-15T00:57:21.646Z,15.70
2018-12-15T01:00:26.149Z,16.10
2018-12-15T01:03:30.109Z,16.17
2018-12-15T01:06:33.641Z,17.23
2018-12-15T01:09:37.271Z,16.97
2018-12-15T01:12:40.781Z,18.07
2018-12-15T01:15:45.359Z,16.97
2018-12-15T01:18:48.885Z,17.85
2018-12-15T01:21:52.407Z,17.00
2018-12-15T01:24:55.900Z,17.12
2018-12-15T01:27:59.412Z,17.63
2018-12-15T01:31:02.945Z,17.57
2018-12-15T01:34:06.540Z,17.40
2018-12-15T01:37:10.130Z,17.30
2018-12-15T01:40:13.735Z,17.50
2018-12-15T01:43:17.272Z,17.37
2018-12-15T01:46:20.820Z,18.60
2018-12-15T01:49:24.354Z,18.83
2018-12-15T01:52:27.948Z,17.20
2018-12-15T01:55:31.850Z,18.70
2018-12-15T01:58:35.416Z,17.90
2018-12-15T02:01:38.952Z,18.27
2018-12-15T02:04:44.130Z,17.48
2018-12-15T02:07:47.807Z,17.40
2018-12-15T02:10:51.335Z,17.27
2018-12-15T02:13:54.820Z,18.70
2018-12-15T02:16:58.425Z,18.20
2018-12-15T02:20:02.052Z,17.10
2018-12-15T02:23:05.595Z,19.37
2018-12-15T02:26:09.101Z,19.30
2018-12-15T02:29:16.431Z,17.75
2018-12-15T02:32:19.978Z,19.07
2018-12-15T02:35:23.487Z,18.50
2018-12-15T02:38:27.002Z,20.60
2018-12-15T02:41:30.540Z,19.43
2018-12-15T02:44:34.117Z,19.63
2018-12-15T02:47:41.383Z,19.03
2018-12-15T02:50:44.245Z,18.75
2018-12-15T02:53:47.822Z,19.10
2018-12-15T02:56:51.323Z,18.90
2018-12-15T02:59:54.845Z,20.52
2018-12-15T03:02:58.596Z,20.27
2018-12-15T03:06:02.056Z,19.80
2018-12-15T03:09:07.394Z,19.07
2018-12-15T03:12:10.939Z,20.00
2018-12-15T03:15:14.539Z,19.43
2018-12-15T03:18:18.081Z,19.27
2018-12-15T03:21:21.604Z,20.33
2018-12-15T03:24:25.181Z,20.20
2018-12-15T03:27:29.315Z,19.30
2018-12-15T03:30:32.954Z,19.03
2018-12-15T03:33:36.527Z,19.50
2018-12-15T03:36:40.043Z,21.03
2018-12-15T03:39:44.443Z,21.45
2018-12-15T03:42:48.260Z,20.68
2018-12-15T03:45:51.772Z,20.43
2018-12-15T03:48:55.247Z,21.12
2018-12-15T03:51:58.789Z,20.15
2018-12-15T03:55:02.306Z,19.20
2018-12-15T03:58:06.430Z,19.90
2018-12-15T04:01:10.100Z,20.23
2018-12-15T04:04:13.566Z,19.57
2018-12-15T04:07:17.105Z,20.60
2018-12-15T04:10:20.807Z,20.97
2018-12-15T04:13:24.359Z,19.90
2018-12-15T04:16:27.927Z,19.73
2018-12-15T04:19:31.495Z,20.12
2018-12-15T04:22:35.138Z,21.73
2018-12-15T04:25:38.654Z,20.67
2018-12-15T04:28:42.198Z,20.70
2018-12-15T04:31:46.658Z,19.53
2018-12-15T04:34:50.278Z,21.10
2018-12-15T04:37:53.839Z,20.30
2018-12-15T04:40:57.353Z,21.37
2018-12-15T04:44:01.335Z,21.50
2018-12-15T04:47:05.198Z,21.27
2018-12-15T04:50:08.892Z,21.93
2018-12-15T04:53:12.447Z,21.57
2018-12-15T04:56:16.070Z,21.50
2018-12-15T04:59:19.797Z,21.70
2018-12-15T05:02:23.350Z,20.03
2018-12-15T05:05:27.088Z,21.80
2018-12-15T05:08:30.532Z,21.70
2018-12-15T05:11:34.092Z,20.60
2018-12-15T05:14:37.691Z,21.50
2018-12-15T05:17:41.166Z,19.83
2018-12-15T05:20:44.810Z,23.22
2018-12-15T05:23:48.349Z,21.60
2018-12-15T05:26:51.795Z,20.40
2018-12-15T05:29:55.576Z,20.20
2018-12-15T05:32:59.127Z,20.57
2018-12-15T05:36:02.664Z,20.77
2018-12-15T05:39:07.116Z,21.07
2018-12-15T05:42:10.701Z,22.02
2018-12-15T05:45:14.250Z,21.87
2018-12-15T05:48:17.776Z,20.63
2018-12-15T05:51:21.452Z,21.63
2018-12-15T05:54:25.050Z,21.50
2018-12-15T05:57:28.631Z,21.30
2018-12-15T06:00:32.268Z,22.10
2018-12-15T06:03:35.775Z,22.50
2018-12-15T06:06:39.402Z,21.33
2018-12-15T06:15:17.151Z,21.90
2018-12-15T06:18:20.743Z,22.03
2018-12-15T06:21:24.247Z,21.40
2018-12-15T06:24:27.872Z,21.85
2018-12-15T06:27:31.466Z,22.83
2018-12-15T06:30:35.063Z,21.63
2018-12-15T06:33:38.621Z,22.10
2018-12-15T06:36:42.190Z,22.70
2018-12-15T06:39:46.698Z,21.70
2018-12-15T06:42:50.242Z,21.33
2018-12-15T06:45:54.145Z,22.00
2018-12-15T06:48:57.615Z,23.00
2018-12-15T06:52:01.197Z,20.97
2018-12-15T06:55:04.881Z,22.00
2018-12-15T06:58:08.356Z,20.87
2018-12-15T07:01:11.907Z,22.10
2018-12-15T07:04:15.519Z,21.13
2018-12-15T07:07:19.016Z,21.07
2018-12-15T07:10:22.526Z,21.53
2018-12-15T07:13:26.066Z,20.23
2018-12-15T07:16:29.580Z,22.00
2018-12-15T07:19:33.302Z,22.35
2018-12-15T07:22:36.810Z,21.67
2018-12-15T07:25:40.964Z,21.37
2018-12-15T07:28:46.085Z,22.17
2018-12-15T07:31:49.670Z,21.65
2018-12-15T07:34:53.130Z,23.07
2018-12-15T07:37:56.605Z,22.10
2018-12-15T07:41:00.918Z,20.53
2018-12-15T07:44:04.584Z,19.77
2018-12-15T07:47:08.124Z,19.83
2018-12-15T07:50:11.759Z,19.03
2018-12-15T07:53:15.245Z,18.32
2018-12-15T07:56:20.880Z,18.60
2018-12-15T07:59:24.509Z,17.60
2018-12-15T08:02:28.099Z,16.83
2018-12-15T08:05:31.744Z,20.67
2018-12-15T08:08:35.254Z,18.87
2018-12-15T08:11:44.137Z,19.87
2018-12-15T08:14:47.671Z,18.27
2018-12-15T08:17:54.027Z,19.53
2018-12-15T08:20:57.694Z,19.80
2018-12-15T08:24:01.230Z,21.50
2018-12-15T08:27:04.984Z,20.37
2018-12-15T08:30:09.991Z,20.70
2018-12-15T08:33:13.566Z,21.33
2018-12-15T08:36:17.244Z,21.20
2018-12-15T08:39:20.694Z,21.70
2018-12-15T08:42:24.239Z,22.23
2018-12-15T08:45:27.860Z,19.20
2018-12-15T08:48:31.389Z,21.33
2018-12-15T08:51:35.236Z,20.93
2018-12-15T08:54:38.893Z,24.00
2018-12-15T08:57:42.406Z,22.00
2018-12-15T09:00:45.993Z,21.60
2018-12-15T09:03:49.629Z,20.73
2018-12-15T09:06:53.071Z,22.45
2018-12-15T09:09:56.764Z,21.48
2018-12-15T09:13:00.395Z,22.33
2018-12-15T09:16:03.999Z,23.10
2018-12-15T09:19:11.252Z,20.40
2018-12-15T09:22:13.214Z,22.40
2018-12-15T09:25:16.710Z,22.67
2018-12-15T09:28:20.298Z,23.50
2018-12-15T09:31:23.775Z,21.07
2018-12-15T09:34:27.383Z,23.47
2018-12-15T09:37:30.894Z,23.10
2018-12-15T09:40:34.638Z,22.13
2018-12-15T09:43:38.224Z,21.90
2018-12-15T09:46:41.737Z,23.20
2018-12-15T09:49:45.795Z,21.33
2018-12-15T09:52:49.358Z,22.00
2018-12-15T09:55:52.843Z,22.42
2018-12-15T09:58:56.342Z,21.83
2018-12-15T10:01:59.818Z,22.27
2018-12-15T10:05:03.379Z,23.07
2018-12-15T10:08:06.859Z,22.07
2018-12-15T10:11:10.418Z,22.67
2018-12-15T10:14:15.103Z,22.95
2018-12-15T10:17:18.724Z,22.67
2018-12-15T10:20:22.397Z,24.30
2018-12-15T10:23:26.069Z,23.30
2018-12-15T10:26:29.762Z,21.30
2018-12-15T10:29:38.545Z,21.70
2018-12-15T10:32:47.389Z,23.17
2018-12-15T10:35:50.973Z,21.76
2018-12-15T10:38:54.578Z,23.43
2018-12-15T10:41:58.802Z,21.13
2018-12-15T10:45:02.489Z,23.05
2018-12-15T10:48:06.117Z,24.23
2018-12-15T10:51:09.782Z,22.20
2018-12-15T10:54:13.333Z,23.80
2018-12-15T10:57:16.970Z,22.58
2018-12-15T11:00:26.754Z,22.33
2018-12-15T11:03:30.314Z,23.97
2018-12-15T11:06:33.835Z,22.40
2018-12-15T11:09:37.303Z,21.83
2018-12-15T11:12:40.847Z,22.33
2018-12-15T11:15:46.210Z,21.37
2018-12-15T11:18:49.908Z,20.27
2018-12-15T11:21:53.510Z,22.23
2018-12-15T11:24:57.019Z,19.77
2018-12-15T11:28:00.477Z,19.37
2018-12-15T11:31:04.012Z,19.65
2018-12-15T11:34:07.593Z,19.90
2018-12-15T11:37:11.053Z,20.57
2018-12-15T11:40:15.052Z,20.17
2018-12-15T11:43:18.660Z,21.20
2018-12-15T11:46:22.308Z,19.33
2018-12-15T11:49:25.944Z,20.63
2018-12-15T11:52:29.515Z,20.47
2018-12-15T11:55:33.093Z,19.15
2018-12-15T11:58:36.640Z,19.97
2018-12-15T12:01:40.115Z,22.95
2018-12-15T12:04:43.716Z,21.67
2018-12-15T12:07:47.353Z,19.43
2018-12-15T12:10:50.884Z,20.30
2018-12-15T12:14:00.134Z,22.10
2018-12-15T12:16:59.889Z,20.80
2018-12-15T12:20:04.815Z,19.07
2018-12-15T12:23:08.302Z,20.00
2018-12-15T12:26:11.770Z,19.97
2018-12-15T12:29:15.408Z,20.70
2018-12-15T12:32:18.950Z,18.30
2018-12-15T12:35:22.457Z,18.80
2018-12-15T12:38:25.972Z,18.53
2018-12-15T12:41:29.517Z,18.43
2018-12-15T12:44:33.224Z,18.17
2018-12-15T12:47:36.808Z,18.80
2018-12-15T12:50:40.278Z,17.80
2018-12-15T12:53:43.804Z,18.00
2018-12-15T12:56:47.305Z,15.13
2018-12-15T12:59:50.877Z,18.62
2018-12-15T13:02:54.774Z,18.50
2018-12-15T13:05:58.489Z,18.73
2018-12-15T13:09:02.092Z,18.90
2018-12-15T13:12:05.741Z,18.60
2018-12-15T13:15:09.313Z,16.95
2018-12-15T13:18:12.868Z,17.43
2018-12-15T13:21:16.484Z,17.07
2018-12-15T13:24:20.012Z,17.50
2018-12-15T13:27:23.513Z,16.87
2018-12-15T13:30:27.237Z,17.60
2018-12-15T13:33:34.804Z,15.57
2018-12-15T13:36:38.507Z,17.07
2018-12-15T13:39:42.028Z,18.47
2018-12-15T13:42:46.654Z,17.44
2018-12-15T13:45:50.288Z,16.93
2018-12-15T13:48:53.883Z,17.82
2018-12-15T13:51:57.484Z,18.23
2018-12-15T13:55:00.912Z,18.03
2018-12-15T13:58:04.599Z,17.37
2018-12-15T14:01:08.060Z,17.17
2018-12-15T14:04:11.523Z,17.80
2018-12-15T14:07:15.671Z,16.75
2018-12-15T14:10:19.307Z,18.33
2018-12-15T14:13:22.796Z,17.13
2018-12-15T14:16:26.388Z,16.43
2018-12-15T14:19:29.894Z,17.30
2018-12-15T14:22:33.538Z,15.70
2018-12-15T14:25:37.062Z,15.77
2018-12-15T14:28:40.718Z,16.90
2018-12-15T14:31:44.227Z,15.87
2018-12-15T14:34:47.754Z,16.35
2018-12-15T14:37:51.514Z,15.87
2018-12-15T14:40:55.033Z,15.77
2018-12-15T14:43:58.758Z,13.48
2018-12-15T14:47:02.304Z,15.90
2018-12-15T14:50:06.611Z,14.60
2018-12-15T14:53:10.273Z,14.63
2018-12-15T14:56:13.762Z,15.25
2018-12-15T14:59:17.307Z,14.70
2018-12-15T15:02:20.989Z,16.07
2018-12-15T15:05:24.613Z,14.03
2018-12-15T15:08:28.277Z,13.80
2018-12-15T15:11:31.977Z,14.80
2018-12-15T15:14:35.422Z,14.03
2018-12-15T15:17:39.058Z,16.57
2018-12-15T15:20:42.547Z,15.27
2018-12-15T15:23:47.054Z,14.07
2018-12-15T15:26:50.455Z,15.00
2018-12-15T15:29:53.938Z,15.23
2018-12-15T15:32:57.467Z,14.53
2018-12-15T15:36:01.023Z,14.97
2018-12-15T15:39:07.349Z,14.15
2018-12-15T15:42:10.868Z,15.47
2018-12-15T15:45:14.433Z,14.93
2018-12-15T15:48:17.941Z,15.37
2018-12-15T15:51:21.555Z,14.97
2018-12-15T15:54:25.198Z,16.07
2018-12-15T15:57:28.743Z,17.70
2018-12-15T16:00:32.483Z,14.13
2018-12-15T16:03:36.171Z,14.93
2018-12-15T16:06:39.801Z,16.07
2018-12-15T16:09:45.099Z,16.93
2018-12-15T16:12:48.793Z,14.70
2018-12-15T16:15:52.356Z,13.70
2018-12-15T16:18:55.991Z,16.85
2018-12-15T16:21:59.457Z,14.23
2018-12-15T16:25:03.098Z,14.30
2018-12-15T16:28:06.542Z,14.00
2018-12-15T16:31:10.139Z,14.70
2018-12-15T16:34:13.679Z,14.23
2018-12-15T16:37:17.192Z,13.70
2018-12-15T16:40:20.877Z,14.27
2018-12-15T16:43:24.447Z,14.13
2018-12-15T16:46:27.922Z,14.95
2018-12-15T16:49:31.584Z,13.60
2018-12-15T16:52:35.301Z,14.50
2018-12-15T16:55:38.826Z,13.90
2018-12-15T16:58:42.480Z,13.70
2018-12-15T17:01:47.246Z,12.97
2018-12-15T17:04:50.867Z,13.10
2018-12-15T17:07:54.541Z,12.77
2018-12-15T17:10:58.088Z,13.15
2018-12-15T17:14:01.688Z,12.40
2018-12-15T17:17:05.307Z,12.70
2018-12-15T17:20:10.016Z,12.47
2018-12-15T17:23:16.436Z,12.10
2018-12-15T17:26:19.983Z,12.77
2018-12-15T17:29:23.599Z,11.60
2018-12-15T17:32:28.215Z,12.17
2018-12-15T17:35:31.984Z,13.43
2018-12-15T17:38:35.580Z,13.00
2018-12-15T17:41:39.292Z,13.20
2018-12-15T17:44:43.050Z,12.10
2018-12-15T17:47:47.547Z,13.58
2018-12-15T17:50:51.183Z,12.90
2018-12-15T17:53:54.813Z,12.80
2018-12-15T17:56:58.393Z,12.60
2018-12-15T18:00:01.929Z,11.90
2018-12-15T18:03:05.551Z,13.55
2018-12-15T18:06:09.117Z,12.67
2018-12-15T18:09:12.677Z,12.47
2018-12-15T18:12:17.311Z,11.85
2018-12-15T18:15:20.987Z,13.30
2018-12-15T18:18:24.566Z,11.63
2018-12-15T18:21:28.132Z,11.90
2018-12-15T18:24:31.643Z,11.40
2018-12-15T18:27:35.162Z,12.90
2018-12-15T18:30:38.681Z,12.90
2018-12-15T18:33:42.269Z,11.70
2018-12-15T18:36:47.557Z,13.15
2018-12-15T18:39:51.182Z,11.63
2018-12-15T18:42:54.641Z,12.23
2018-12-15T18:45:58.176Z,13.13
2018-12-15T18:49:01.937Z,14.23
2018-12-15T18:52:05.461Z,13.03
2018-12-15T18:55:09.062Z,13.17
2018-12-15T18:58:12.603Z,13.03
2018-12-15T19:01:16.755Z,14.65
2018-12-15T19:04:20.331Z,13.70
2018-12-15T19:07:23.927Z,13.90
2018-12-15T19:10:27.571Z,12.63
2018-12-15T19:13:31.123Z,12.63
2018-12-15T19:16:34.752Z,12.25
2018-12-15T19:19:38.363Z,12.53
2018-12-15T19:22:42.125Z,13.70
2018-12-15T19:25:45.798Z,12.88
2018-12-15T19:28:49.503Z,11.80
2018-12-15T19:31:54.226Z,12.35
2018-12-15T19:34:57.753Z,13.70
2018-12-15T19:38:01.509Z,13.03
2018-12-15T19:41:05.518Z,12.60
2018-12-15T19:44:09.102Z,13.00
2018-12-15T19:47:12.650Z,13.13
2018-12-15T19:50:16.912Z,13.80
2018-12-15T19:53:20.638Z,13.57
2018-12-15T19:56:24.217Z,17.03
2018-12-15T19:59:27.873Z,13.15
2018-12-15T20:02:31.701Z,13.43
2018-12-15T20:05:35.235Z,12.53
2018-12-15T20:08:39.191Z,12.78
2018-12-15T20:11:42.860Z,14.23
2018-12-15T20:14:47.736Z,13.50
2018-12-15T20:17:51.417Z,13.40
2018-12-15T20:20:55.151Z,13.70
2018-12-15T20:23:58.781Z,15.57
2018-12-15T20:27:02.368Z,13.58
2018-12-15T20:30:06.852Z,13.72
2018-12-15T20:33:10.477Z,12.67
2018-12-15T20:36:14.056Z,11.70
2018-12-15T20:39:17.747Z,13.23
2018-12-15T20:42:21.382Z,14.20
2018-12-15T20:45:25.005Z,12.58
2018-12-15T20:48:28.582Z,14.03
2018-12-15T20:51:32.417Z,12.80
2018-12-15T20:54:36.036Z,13.80
2018-12-15T20:57:39.690Z,12.67
2018-12-15T21:00:43.373Z,12.70
2018-12-15T21:09:26.191Z,12.27
2018-12-15T21:12:29.876Z,13.30
2018-12-15T21:15:38.915Z,12.70
2018-12-15T21:18:42.635Z,13.20
2018-12-15T21:21:49.443Z,13.93
2018-12-15T21:24:51.866Z,12.70
2018-12-15T21:27:55.552Z,12.60
2018-12-15T21:30:59.636Z,12.30
2018-12-15T21:34:07.779Z,12.40
2018-12-15T21:37:08.785Z,12.87
2018-12-15T21:40:12.507Z,11.00
2018-12-15T21:43:16.240Z,11.95
2018-12-15T21:46:19.797Z,11.03
2018-12-15T21:49:24.656Z,12.07
2018-12-15T21:52:28.334Z,11.48
2018-12-15T21:55:31.931Z,11.93
2018-12-15T21:58:35.618Z,11.37
2018-12-15T22:01:39.147Z,11.33
2018-12-15T22:04:42.712Z,11.20
2018-12-15T22:07:46.316Z,11.93
2018-12-15T22:10:49.952Z,12.20
2018-12-15T22:13:53.671Z,11.22
2018-12-15T22:16:57.247Z,12.68
2018-12-15T22:20:00.860Z,11.70
2018-12-15T22:23:04.438Z,11.97
2018-12-15T22:26:08.077Z,11.70
2018-12-15T22:29:11.725Z,11.90
2018-12-15T22:32:15.292Z,12.63
2018-12-15T22:35:18.890Z,12.37
2018-12-15T22:38:22.444Z,13.90
2018-12-15T22:41:26.130Z,12.73
2018-12-15T22:44:29.634Z,12.20
2018-12-15T22:47:33.373Z,11.37
2018-12-15T22:50:36.990Z,12.33
2018-12-15T22:53:40.719Z,13.17
2018-12-15T22:56:44.361Z,12.10
2018-12-15T22:59:48.018Z,13.63
2018-12-15T23:02:51.897Z,12.90
2018-12-15T23:05:55.457Z,13.07
2018-12-15T23:08:59.307Z,12.37
2018-12-15T23:12:03.217Z,12.10
2018-12-15T23:15:08.079Z,13.07
2018-12-15T23:18:11.580Z,12.37
2018-12-15T23:21:15.206Z,12.73
2018-12-15T23:24:18.735Z,12.73
2018-12-15T23:27:22.285Z,12.73
2018-12-15T23:30:26.579Z,12.28
2018-12-15T23:33:36.666Z,13.07
2018-12-15T23:36:40.196Z,13.33
2018-12-15T23:39:44.115Z,13.03
2018-12-15T23:42:47.811Z,13.10
2018-12-15T23:45:51.518Z,11.30
2018-12-15T23:48:55.193Z,13.47
2018-12-15T23:51:58.808Z,12.07
2018-12-15T23:55:02.639Z,14.60
2018-12-15T23:58:06.210Z,14.23
